22 de maio de 2022

Tempo Código Clima Temp. Visão Nuvens Vento METAR/SPECI
09:25
V
16 °C 10 km+ - 150°   150° 4 kt METAR EHDL 220725Z AUTO 15004KT 060V230 9999 FEW260 16/08 Q1018 BLU
08:55
V
15 °C 10 km+ - Var   Var 3 kt METAR EHDL 220655Z AUTO VRB03KT 9999 NCD 15/09 Q1018 BLU
08:25
V
14 °C 10 km+ - 120°   120° 3 kt METAR EHDL 220625Z AUTO 12003KT 050V210 9999 NCD 14/09 Q1018 BLU
07:55
V
13 °C 10 km+ - Var   Var 2 kt METAR EHDL 220555Z AUTO VRB02KT 9999 NCD 13/10 Q1018 BLU
07:25
V
9 °C 10 km+ 23.000 ft Var   Var 1 kt METAR EHDL 220525Z AUTO VRB01KT 9999 BKN230 09/08 Q1018 BLU
06:55
V
7 °C 10 km+ 22.000 ft 130°   130° 1 kt METAR EHDL 220455Z AUTO 13001KT 9999 OVC220 07/06 Q1018 BLU
06:25
V
5 °C 10 km+ 22.000 ft 110°   110° 3 kt METAR EHDL 220425Z AUTO 11003KT 9999 OVC220 05/05 Q1018 BLU
05:55
V
5 °C 10 km+ 23.000 ft 060°   060° 1 kt METAR EHDL 220355Z AUTO 06001KT 9999 OVC230 05/04 Q1018 BLU
05:25
V
5 °C 10 km+ 24.000 ft 120°   120° 2 kt METAR EHDL 220325Z AUTO 12002KT 9999 OVC240 05/05 Q1018 BLU
04:55
V
5 °C 10 km+ - Var   000° 0 kt METAR EHDL 220255Z AUTO 00000KT 9999 SCT280 SCT350 05/04 Q1018 BLU
04:25
V
6 °C 10 km+ - 130°   130° 2 kt METAR EHDL 220225Z AUTO 13002KT 9999 NCD 06/05 Q1018 BLU
03:55
V
6 °C 10 km+ - 110°   110° 1 kt METAR EHDL 220155Z AUTO 11001KT 9999 NCD 06/05 Q1019 BLU
03:25
V
7 °C 10 km+ - Var   Var 1 kt METAR EHDL 220125Z AUTO VRB01KT 9999 NCD 07/06 Q1019 BLU
02:55
V
7 °C 10 km+ - 120°   120° 1 kt METAR EHDL 220055Z AUTO 12001KT 9999 NCD 07/06 Q1019 BLU
02:25
V
7 °C 10 km+ 22.000 ft 120°   120° 1 kt METAR EHDL 220025Z AUTO 12001KT 9999 SCT051 BKN220 07/07 Q1019 BLU
01:55
V
7 °C 10 km+ 4.800 ft 100°   100° 1 kt METAR EHDL 212355Z AUTO 10001KT 9999 OVC048 07/07 Q1019 BLU
01:25
V
8 °C 10 km+ 22.000 ft 130°   130° 1 kt METAR EHDL 212325Z AUTO 13001KT 9999 OVC220 08/07 Q1019 BLU
00:55
V
8 °C 10 km+ 22.000 ft 160°   160° 1 kt METAR EHDL 212255Z AUTO 16001KT 9999 OVC220 08/07 Q1020 BLU
00:25
V
8 °C 10 km+ 23.000 ft 110°   110° 2 kt METAR EHDL 212225Z AUTO 11002KT 9999 OVC230 08/08 Q1019 BLU

21 de maio de 2022

Tempo Código Clima Temp. Visão Nuvens Vento METAR/SPECI
23:55
V
9 °C 10 km+ - 130°   130° 2 kt METAR EHDL 212155Z AUTO 13002KT 9999 SCT240 09/08 Q1020 BLU
23:25
V
10 °C 10 km+ - 150°   150° 1 kt METAR EHDL 212125Z AUTO 15001KT 9999 NCD 10/08 Q1020 BLU
22:55
V
10 °C 10 km+ - 020°   020° 2 kt METAR EHDL 212055Z AUTO 02002KT 9999 FEW260 10/09 Q1020 BLU
22:25
V
11 °C 10 km+ - Var   000° 0 kt METAR EHDL 212025Z AUTO 00000KT 9999 NCD 11/09 Q1020 BLU
21:55
V
13 °C 10 km+ 28.000 ft 350°   350° 2 kt METAR EHDL 211955Z AUTO 35002KT 9999 OVC280 13/09 Q1020 BLU
21:25
V
14 °C 10 km+ 29.000 ft 310°   310° 4 kt METAR EHDL 211925Z AUTO 31004KT 9999 FEW140 OVC290 14/09 Q1020 BLU
20:55
V
16 °C 10 km+ 13.000 ft 310°   310° 5 kt METAR EHDL 211855Z AUTO 31005KT 260V360 9999 OVC130 16/09 Q1020 BLU
20:25
V
16 °C 10 km+ 14.000 ft 320°   320° 5 kt METAR EHDL 211825Z AUTO 32005KT 270V010 9999 OVC140 16/09 Q1020 BLU
19:55
V
16 °C 10 km+ 13.000 ft Var   Var 1 kt METAR EHDL 211755Z AUTO VRB01KT 9999 OVC130 16/09 Q1020 BLU
19:25
V
17 °C 10 km+ 13.000 ft 320°   320° 8 kt METAR EHDL 211725Z AUTO 32008KT 230V030 9999 FEW035 SCT045 OVC130 17/10 Q1020 BLU
18:55
V
17 °C 10 km+ 13.000 ft 280°   280° 7 kt METAR EHDL 211655Z AUTO 28007KT 220V360 9999 FEW036 SCT045 OVC130 17/09 Q1020 BLU
18:25
V
18 °C 10 km+ 15.000 ft 290°   290° 8 kt METAR EHDL 211625Z AUTO 29008KT 200V350 9999 FEW046 SCT051 OVC150 18/08 Q1020 BLU
17:55
V
18 °C 10 km+ 5.600 ft 260°   260° 9 kt METAR EHDL 211555Z AUTO 26009KT 210V340 9999 SCT038 BKN056 OVC130 18/09 Q1020 BLU
17:25
V
18 °C 10 km+ 12.000 ft 270°   270° 9 kt METAR EHDL 211525Z AUTO 27009KT 190V320 9999 FEW046 OVC120 18/09 Q1020 BLU
16:55
V
18 °C 10 km+ 4.400 ft 250°   250° 12 kt METAR EHDL 211455Z AUTO 25012KT 210V360 9999 SCT037 BKN044 OVC052 18/09 Q1020 BLU
16:25
V
18 °C 10 km+ 5.200 ft 280°   280° 8 kt METAR EHDL 211425Z AUTO 28008KT 190V320 9999 SCT037 SCT044 BKN052 18/09 Q1021 BLU
15:55
V
17 °C 10 km+ 5.300 ft 260°   260° 11 kt METAR EHDL 211355Z AUTO 26011KT 210V330 9999 FEW036 SCT043 BKN053 17/09 Q1021 BLU
15:25
V
17 °C 10 km+ 4.700 ft 250°   250° 11 kt METAR EHDL 211325Z AUTO 25011KT 160V300 9999 FEW037 SCT042 BKN047 17/09 Q1021 BLU
14:55
V
18 °C 10 km+ 3.800 ft 250°   250° 10 kt METAR EHDL 211255Z AUTO 25010KT 170V330 9999 SCT033 BKN038 BKN044 18/10 Q1021 BLU
14:25
V
18 °C 10 km+ 3.800 ft 250°   250° 10 kt METAR EHDL 211225Z AUTO 25010KT 190V360 9999 FEW029 SCT033 BKN038 18/09 Q1021 BLU
13:55
V
17 °C 10 km+ 3.100 ft 250°   250° 10 kt METAR EHDL 211155Z AUTO 25010KT 200V340 9999 BKN031 BKN037 OVC051 17/08 Q1021 BLU
13:25
M
17 °C 10 km+ 2.900 ft 250°   250° 11 kt METAR EHDL 211125Z AUTO 25011KT 190V300 9999 BKN029 OVC034 17/10 Q1021 BLU
12:55
V
16 °C 10 km+ 3.000 ft 250°   250° 11 kt METAR EHDL 211055Z AUTO 25011KT 220V350 9999 SCT026 BKN030 BKN034 16/10 Q1020 BLU
12:25
V
16 °C 10 km+ 4.900 ft 260°   260° 11 kt METAR EHDL 211025Z AUTO 26011KT 150V320 9999 FEW028 SCT032 BKN049 16/09 Q1020 BLU
11:55
V
16 °C 10 km+ 4.800 ft 250°   250° 9 kt METAR EHDL 210955Z AUTO 25009KT 220V340 9999 FEW024 SCT031 BKN048 16/10 Q1020 BLU
11:25
V
15 °C 10 km+ 3.100 ft 260°   260° 9 kt METAR EHDL 210925Z AUTO 26009KT 180V300 9999 FEW021 SCT028 BKN031 15/10 Q1020 BLU
10:55
M
15 °C 10 km+ 2.500 ft 260°   260° 9 kt METAR EHDL 210855Z AUTO 26009KT 190V310 9999 SCT021 BKN025 BKN033 15/10 Q1020 WHT
10:25
M
16 °C 10 km+ 2.600 ft 260°   260° 10 kt METAR EHDL 210825Z AUTO 26010KT 170V320 9999 SCT022 BKN026 OVC031 16/10 Q1020 WHT
09:55
M
15 °C 10 km+ 2.300 ft 250°   250° 11 kt METAR EHDL 210755Z AUTO 25011KT 200V330 9999 SCT019 BKN023 BKN028 15/10 Q1020 WHT
09:25
M
15 °C 10 km+ 2.200 ft 260°   260° 11 kt METAR EHDL 210725Z AUTO 26011KT 200V330 9999 SCT017 BKN022 15/10 Q1020 WHT
08:55
M
14 °C 10 km+ 1.600 ft 260°   260° 11 kt METAR EHDL 210655Z AUTO 26011KT 180V330 9999 BKN016 BKN021 14/10 Q1019 WHT
08:25
M
13 °C 10 km+ 1.600 ft 250°   250° 10 kt METAR EHDL 210625Z AUTO 25010KT 190V320 9999 BKN016 13/10 Q1019 WHT
07:55
M
13 °C 10 km+ 1.600 ft 240°   240° 9 kt METAR EHDL 210555Z AUTO 24009KT 180V300 9999 FEW011 BKN016 OVC020 13/11 Q1019 WHT
07:25
V
12 °C 10 km+ - 240°   240° 8 kt METAR EHDL 210525Z AUTO 24008KT 160V280 9999 FEW019 12/11 Q1019 BLU
06:55
M
12 °C 10 km+ 1.900 ft 240°   240° 10 kt METAR EHDL 210455Z AUTO 24010KT 190V310 9999 FEW009 SCT015 BKN019 12/11 Q1019 WHT
06:25
M
12 °C 10 km+ 1.500 ft 230°   230° 10 kt METAR EHDL 210425Z AUTO 23010KT 190V280 9999 FEW010 BKN015 OVC018 12/11 Q1018 WHT
05:55
M
12 °C 10 km+ 1.600 ft 230°   230° 9 kt METAR EHDL 210355Z AUTO 23009KT 170V300 9999 FEW011 BKN016 OVC020 12/11 Q1018 WHT
05:25
M
12 °C 10 km+ 1.000 ft 240°   240° 9 kt METAR EHDL 210325Z AUTO 24009KT 170V280 9999 BKN010 OVC012 12/11 Q1018 GRN
04:55
M
12 °C 10 km+ 1.600 ft 230°   230° 9 kt METAR EHDL 210255Z AUTO 23009KT 180V280 9999 FEW010 SCT013 BKN016 12/11 Q1018 GRN
04:25
M
12 °C 10 km+ 1.500 ft 220°   220° 9 kt METAR EHDL 210225Z AUTO 22009KT 140V270 9999 SCT012 BKN015 OVC024 12/10 Q1018 GRN
03:55
M
12 °C 10 km+ 1.600 ft 220°   220° 9 kt METAR EHDL 210155Z AUTO 22009KT 160V290 9999 SCT011 OVC016 12/10 Q1018 GRN
03:25
M
12 °C 10 km+ 1.500 ft 220°   220° 9 kt METAR EHDL 210125Z AUTO 22009KT 150V280 9999 FEW011 SCT013 OVC015 12/10 Q1018 GRN
02:55
M
11 °C 10 km+ 1.600 ft 220°   220° 9 kt METAR EHDL 210055Z AUTO 22009KT 160V280 9999 FEW014 OVC016 11/10 Q1018 WHT
02:25
V
11 °C 8 km 7.400 ft 210°   210° 9 kt METAR EHDL 210025Z AUTO 21009KT 140V250 8000 BR SCT068 OVC074 11/10 Q1018 BLU
01:55
M
11 °C 7 km - 210°   210° 7 kt METAR EHDL 202355Z AUTO 21007KT 150V270 7000 BR SCT077 11/10 Q1018 WHT
01:25
V
11 °C 10 km+ - 230°   230° 9 kt METAR EHDL 202325Z AUTO 23009KT 180V270 9999 FEW011 11/10 Q1019 BLU
00:55
M
11 °C 10 km+ 1.000 ft 230°   230° 8 kt METAR EHDL 202255Z AUTO 23008KT 170V290 9999 OVC010 11/10 Q1019 GRN
00:25
V
11 °C 10 km+ - 240°   240° 7 kt METAR EHDL 202225Z AUTO 24007KT 150V290 9999 FEW010 11/10 Q1019 BLU

20 de maio de 2022

Tempo Código Clima Temp. Visão Nuvens Vento METAR/SPECI
23:55
M
11 °C 10 km+ 1.500 ft 240°   240° 7 kt METAR EHDL 202155Z AUTO 24007KT 180V290 9999 BKN015 11/10 Q1019 WHT
23:25
M
11 °C 10 km+ 1.500 ft 250°   250° 6 kt METAR EHDL 202125Z AUTO 25006KT 210V300 9999 FEW010 BKN015 BKN031 11/10 Q1018 WHT
22:55
V
11 °C 10 km+ 3.100 ft 250°   250° 8 kt METAR EHDL 202055Z AUTO 25008KT 190V330 9999 FEW007 OVC031 11/10 Q1018 BLU
22:25
I
11 °C 10 km+ 700 ft 250°   250° 7 kt METAR EHDL 202025Z AUTO 25007KT 200V300 9999 SCT006 BKN007 BKN009 11/10 Q1017 YLO
21:55
M
12 °C 10 km+ 1.000 ft 270°   270° 9 kt METAR EHDL 201955Z AUTO 27009KT 200V340 9999 FEW008 BKN010 BKN013 12/11 Q1017 GRN
21:25
I
12 °C 10 km+ 800 ft 260°   260° 10 kt METAR EHDL 201925Z AUTO 26010KT 220V300 9999 FEW007 BKN008 OVC010 12/11 Q1016 GRN
20:55
M
12 °C 8 km 1.000 ft Var   Var 9 kt METAR EHDL 201855Z AUTO VRB09KT 8000 BR FEW006 SCT007 BKN010 12/11 Q1016 GRN
20:25
I
13 °C 10 km+ 800 ft 270°   270° 9 kt METAR EHDL 201825Z AUTO 27009KT 220V340 9999 SCT007 BKN008 BKN010 13/12 Q1016 REDZ GRN
19:55
M
13 °C 10 km+ 2.000 ft 270°   270° 8 kt METAR EHDL 201755Z AUTO 27008KT 200V330 9999 -RA FEW007 SCT010 BKN020 13/12 Q1015 GRN
19:25
I
14 °C 10 km+ 700 ft 270°   270° 11 kt METAR EHDL 201725Z AUTO 27011KT 220V350 9999 FEW005 BKN007 BKN008 14/13 Q1014 GRN
18:55
M
14 °C 10 km+ 1.100 ft 310°   310° 8 kt METAR EHDL 201655Z AUTO 31008KT 240V040 9999 FEW006 SCT008 BKN011 14/13 Q1013 GRN
18:25
M
14 °C 10 km+ 1.600 ft 310°   310° 13 kt METAR EHDL 201625Z AUTO 31013KT 230V020 9999 FEW008 BKN016 OVC019 14/13 Q1013 REDZ WHT
17:55
I
15 °C 7 km 500 ft 290°   290° 10 kt METAR EHDL 201555Z AUTO 29010KT 240V020 7000 BR SCT004 BKN005 BKN007 15/14 Q1012 YLO
17:25
M
16 °C 6 km 1.600 ft 300°   300° 8 kt METAR EHDL 201525Z AUTO 30008KT 250V010 6000 BR FEW004 SCT006 BKN016 16/16 Q1011 REDZ YLO
16:55
I
18 °C 4,8 km 2.500 ft Var   Var 12 kt METAR EHDL 201455Z AUTO VRB12KT 4800 SHRA FEW007 SCT015CB BKN025 18/17 Q1011 GRN
16:25
M
17 °C 7 km 7.300 ft Var   Var 10 kt METAR EHDL 201425Z AUTO VRB10KT 7000 -SHRA FEW015CB SCT035 BKN073 17/15 Q1011 RETSRA WHT
15:55
V
18 °C 8 km 7.000 ft Var   Var 7 kt METAR EHDL 201355Z AUTO VRB07KT 8000 BR FEW015CB SCT064 BKN070 18/16 Q1012 BLU
15:25
V
16 °C 9 km 4.200 ft Var   Var 7 kt METAR EHDL 201325Z AUTO VRB07KT 9000 -SHRA SCT015CB SCT037 BKN042 16/15 Q1013 RERA WHT
14:55
M
18 °C 10 km+ 1.800 ft 090°   090° 6 kt METAR EHDL 201255Z AUTO 09006KT 020V150 9999 TSRA BKN018CB SCT051 BKN086 18/13 Q1013 WHT
14:25
V
19 °C 10 km+ 5.200 ft 080°   080° 9 kt METAR EHDL 201225Z AUTO 08009KT 030V180 9999 BKN052 BKN060 BKN071 19/12 Q1014 BLU
13:55
V
20 °C 10 km+ 5.600 ft Var   Var 10 kt METAR EHDL 201155Z AUTO VRB10KT 9999 BKN056 BKN062 OVC140 20/11 Q1015 BLU
13:25
V
20 °C 10 km+ 17.000 ft Var   Var 9 kt METAR EHDL 201125Z AUTO VRB09KT 9999 FEW081 OVC170 20/10 Q1015 BLU
12:55
M
20 °C 10 km+ 2.500 ft Var   Var 8 kt METAR EHDL 201055Z AUTO VRB08KT 9999 OVC025 20/11 Q1017 BLU
12:25
M
19 °C 10 km+ 2.800 ft 120°   120° 7 kt METAR EHDL 201025Z AUTO 12007KT 040V210 9999 OVC028 19/10 Q1018 BLU
11:55
V
19 °C 10 km+ 3.300 ft 110°   110° 6 kt METAR EHDL 200955Z AUTO 11006KT 050V210 9999 BKN033 OVC120 19/11 Q1018 BLU
11:25
V
19 °C 10 km+ 13.000 ft 080°   080° 5 kt METAR EHDL 200925Z AUTO 08005KT 010V170 9999 OVC130 19/10 Q1018 BLU
10:55
V
18 °C 10 km+ 13.000 ft Var   Var 5 kt METAR EHDL 200855Z AUTO VRB05KT 9999 OVC130 18/11 Q1019 BLU
10:25
V
18 °C 10 km+ 14.000 ft Var   Var 5 kt METAR EHDL 200825Z AUTO VRB05KT 9999 OVC140 18/10 Q1020 BLU
09:55
V
16 °C 10 km+ 14.000 ft 120°   120° 4 kt METAR EHDL 200755Z AUTO 12004KT 060V220 9999 OVC140 16/11 Q1020 BLU
09:25
V
16 °C 10 km+ 16.000 ft 120°   120° 5 kt METAR EHDL 200725Z AUTO 12005KT 050V210 9999 OVC160 16/12 Q1020 BLU
08:55
V
15 °C 10 km+ 18.000 ft 100°   100° 5 kt METAR EHDL 200655Z AUTO 10005KT 020V180 9999 OVC180 15/12 Q1021 BLU
Dados mais antigos

Baixe nosso aplicativo

Fácil acesso a todas as condições meteorológicas da aviação no seu celular e no seu tablet.
Com muitos recursos não disponíveis no site, como suporte offline e uma lista pessoal de aeroportos.

Nós e terceiros acompanhamos seu comportamento na internet em nosso site com cookies. Se você continuar, nós assumimos que você concorda com nossa política de cookies. Saiba mais